American Canyon, California
Current Conditions -  °F | °C
As of 10:54 PM on Friday 24 Oct 2014 (Local Time) from KAPC Reporting Station
Broken Clouds Broken Clouds  
Wind Chill: 60°   Ceiling: 4000
Heat Index: 60°   Visibility: 10mi
Dew Point: 56°   Wind: 0mph
Humidity: 86%   Direction: NA
Pressure: 29.92"   Gusts: NA
Location:  38.17°N, 122.25°W
Report Text: KAPC 250554Z AUTO 00000KT 10SM FEW024 BKN040 16/13 A2992 RMK AO2 SLP124 T01560133 10189 20156 51010
Loading
Personal Weather Stations






























Interactive Weather Map
Tropical Storm Tracking
New forecast layout! Learn more

10-Day Weather Forecast

Advertisements
Track Severe Weather on mobile